aviador You're here:

KGGI Decoded Metar

GRINNELL REG in IA, USA
Report Time2017-09-24 22:55:00
UTC Time2017-09-24 23:09:07
Flight Rules vfr VFR
Wind160° at 06 kt
W.Decomp.*RWY 13: 5.3 kt HW 2.8 kt RCW
W.Rank160° ranks 4
Current wind is below 160° avg. (8.6)
Visibility9999 m
Phenomena:N/A
Clouds:N/A
Expected CloudBase > 5,600 ft AGL from Temp-Dew spread
CeilingNone
Temp30°C (ISA +17)
Dew Point16°C (43% RH)
Heat Index30.1°C
AAT29.8°C
QNH1014 hPa
Density Alt3,163 ft
Elevation1,007 ft
Report Wrong Elevation
Raw Report
METAR KGGI 242255Z AUTO 16006KT 10SM CLR 30/16 A2994 RMK AO2 T03010162=

Extra information for KGGI:More info

Metar Taf Metar & Taf Last 4 Metars F.Rules Stats Wind Profile Meteogram Temp Stats Airport Information Weather charts Add Link Nearby VenuesMetar ALERT Operation Metar Decoded Social comments

AIRNAV info for KGGI